ADDS TAF Board (Experimental) INFO Settings
IDs: Format: Expanded Condensed

KSAN - San Diego Intl Arpt, CA, US

Issued at 0641 UTC 13 Feb 2016
Updated at: 0700 UTC 13 Feb 2016
Time0651Z 13/07Z 13/08Z 13/09Z 13/10Z 13/11Z 13/12Z 13/13Z 13/14Z 13/15Z 13/16Z 13/17Z 13/18Z 13/19Z
Type OBS PRVL
  [TEMP]  
PRVL
  [TEMP]  
PRVL
  [TEMP]  
PRVL
  [TEMP]  
PRVL PRVL PRVL PRVL PRVL PRVL PRVL PRVL PRVL
VIS 0.75 6
  [0.25]  
6
  [0.25]  
6
  [0.25]  
6
  [0.25]  
3 3 3 >6 >6 >6 >6 >6 >6
CIG 1 --
  [2]  
--
  [2]  
--
  [2]  
--
  [2]  
-- -- -- -- -- -- -- -- --
Cover BKN FEW
  [OVX]  
FEW
  [OVX]  
FEW
  [OVX]  
FEW
  [OVX]  
FEW FEW FEW SCT SCT SCT SCT SCT SCT
FltCat LIFR VFR
  [LIFR]  
VFR
  [LIFR]  
VFR
  [LIFR]  
VFR
  [LIFR]  
MVFR MVFR MVFR VFR VFR VFR VFR VFR VFR
WX BR BR VCFG
  [FG]  
BR VCFG
  [FG]  
BR VCFG
  [FG]  
BR VCFG
  [FG]  
BR VCFG BR VCFG BR VCFG -- -- -- -- -- --
WDir 350 VRB
[VRB]
VRB
[VRB]
VRB
[VRB]
VRB
[VRB]
VRB VRB VRB VRB VRB VRB VRB VRB VRB
WSpd 3 3
  [3]  
3
  [3]  
3
  [3]  
3
  [3]  
3 3 3 4 4 4 4 4 4
WGst -- --
  [--]  
--
  [--]  
--
  [--]  
--
  [--]  
-- -- -- -- -- -- -- -- --
R09/27
XWnd 3 3 3 3 3 VRB VRB VRB VRB VRB VRB VRB VRB VRB
XGst -- 0 0 0 0 -- -- -- -- -- -- -- -- --
HWnd -1 -1 -1 -1 -1 VRB VRB VRB VRB VRB VRB VRB VRB VRB
HGst -- 0 0 0 0 -- -- -- -- -- -- -- -- --

NOTE: TEMPO conditions in [brackets]. Keep in mind TEMPO conditions might be better (lower impact) than prevailing conditions.

Raw TAF
KSAN 130641Z 1307/1412 VRB03KT 6SM BR VCFG FEW003
  TEMPO 1307/1311 1/4SM FG VV002
  FM131100 VRB03KT 3SM BR VCFG FEW005
  FM131400 VRB04KT P6SM SCT250
  FM132200 29010KT P6SM SCT250
  FM140100 VRB04KT P6SM VCFG FEW006
  FM140800 VRB03KT P6SM FEW250


Raw METAR
KSAN 130651Z 35003KT 3/4SM R09/3500VP6000FT BR BKN001 15/13 A3011 RMK AO2 SLP197 VIS S-SW 1/2 VIS W 1 1/2 VIS NW 1 T01530130 $
KSAN 130643Z 33004KT 3/4SM R09/1200VP6000FT BR VV001 15/13 A3012 RMK AO2 VIS SE-W 1/2 $
KSAN 130639Z 32005KT 1/4SM R09/1200VP6000FT FG BKN001 15/13 A3012 RMK AO2 VIS N-NE 1/2 VIS W 1/2 $
KSAN 130620Z 34003KT 8SM FEW003 16/10 A3011 RMK AO2 VIS W 2 $
KSAN 130551Z 00000KT 7SM CLR 17/12 A3011 RMK AO2 SLP194 VCFG T01720123 10228 20172 53009 $
KSAN 130451Z COR 00000KT 9SM CLR 18/07 A3009 RMK AO2 SLP188 T01780074 $
KSAN 130351Z 00000KT 8SM FEW005 18/10 A3008 RMK AO2 SLP184 VCFG T01830099 $

METAR Board
Radar Display
Forecast Discussion

TAF Board Legend

Potential Impact
Threat None Slight Moderate High
Visibility (sm) ≥5.1 5.1>X≥3 3>X≥1 <1
Ceiling (100 ft) ≥30.1 30.1>X≥10 10>X≥5 <5
Wind Speed (kt) <10 10≤X<20 20≤X<30 ≥30
Wind Gust (kt) <15 15≤X<25 25≤X<35 ≥35
Weather No Wx Reported VCTS,-TS,-FZRA,SN TS,FZRA +TS,+FZRA,+SN